Time;durP1;ratioP1;P1;durP2;ratioP2;P2;SDS_P1;SDS_P2;PMS_P1;PMS_P2;Temp;Humidity;BMP_temperature;BMP_pressure;BME280_temperature;BME280_humidity;BME280_pressure;Samples;Min_cycle;Max_cycle;Signal;HPM_P1;HPM_P2
2022/09/08 00:01:17;;;;;;;;;;;;;;;;;;5006750;28;19929;-65
2022/09/08 00:03:44;;;;;;;;;;;;;;;;;;5001692;28;19925;-66
2022/09/08 00:06:12;;;;;;;;;;;;;;;;;;5005089;28;19929;-65
2022/09/08 00:08:39;;;;;;;;;;;;;;;;;;5005766;28;19932;-65
2022/09/08 00:11:06;;;;;;;;;;;;;;;;;;5007174;28;19994;-65
2022/09/08 00:13:33;;;;;;;;;;;;;;;;;;5005241;28;19929;-65
2022/09/08 00:16:01;;;;;;;;;;;;;;;;;;5005748;28;19925;-65
2022/09/08 00:18:28;;;;;;;;;;;;;;;;;;5002694;28;20646;-65
2022/09/08 00:20:55;;;;;;;;;;;;;;;;;;5000896;28;19979;-65
2022/09/08 00:23:22;;;;;;;;;;;;;;;;;;5006053;28;19930;-65
2022/09/08 00:25:49;;;;;;;;;;;;;;;;;;5003461;28;20015;-65
2022/09/08 00:28:16;;;;;;;;;;;;;;;;;;5003962;28;19976;-65
2022/09/08 00:30:43;;;;;;;;;;;;;;;;;;5004068;28;20437;-65
2022/09/08 00:33:10;;;;;;;;;;;;;;;;;;5006027;28;19925;-65
2022/09/08 00:35:38;;;;;;;;;;;;;;;;;;5000589;28;19925;-65
2022/09/08 00:38:06;;;;;;;;;;;;;;;;;;5005969;28;19933;-65
2022/09/08 00:40:33;;;;;;;;;;;;;;;;;;5006135;28;20423;-66
2022/09/08 00:43:01;;;;;;;;;;;;;;;;;;5002039;28;19935;-65
2022/09/08 00:45:28;;;;;;;;;;;;;;;;;;5006629;28;19925;-65
2022/09/08 00:47:55;;;;;;;;;;;;;;;;;;5003672;28;19948;-65
2022/09/08 00:50:22;;;;;;;;;;;;;;;;;;5005940;28;20415;-65
2022/09/08 00:52:50;;;;;;;;;;;;;;;;;;5005765;28;19936;-65
2022/09/08 00:55:17;;;;;;;;;;;;;;;;;;5007950;28;19967;-65
2022/09/08 00:57:44;;;;;;;;;;;;;;;;;;5003462;28;19937;-65
2022/09/08 01:00:12;;;;;;;;;;;;;;;;;;5002331;28;19987;-65
2022/09/08 01:02:39;;;;;;;;;;;;;;;;;;6021020;22;20216;-69
2022/09/08 01:05:06;;;;;;;;;;;;;;;;;;5014395;28;20446;-70
2022/09/08 01:13:08;;;;;;;;;;;;;;;;;;4949786;28;19945;-69
2022/09/08 01:15:35;;;;;;;;;;;;;;;;;;5027850;28;19935;-70
2022/09/08 01:18:02;;;;;;;;;;;;;;;;;;5004736;28;19928;-70
2022/09/08 01:20:31;;;;;;;;;;;;;;;;;;5020104;28;20657;-70
2022/09/08 01:22:58;;;;;;;;;;;;;;;;;;5024830;28;19932;-70
2022/09/08 01:25:26;;;;;;;;;;;;;;;;;;5024609;28;19925;-70
2022/09/08 01:27:53;;;;;;;;;;;;;;;;;;5024718;28;19921;-70
2022/09/08 01:30:20;;;;;;;;;;;;;;;;;;5026284;28;19932;-70
2022/09/08 01:32:47;;;;;;;;;;;;;;;;;;5024465;28;19936;-70
2022/09/08 01:35:14;;;;;;;;;;;;;;;;;;5027079;28;19952;-70
2022/09/08 01:37:41;;;;;;;;;;;;;;;;;;5007936;28;21135;-70
2022/09/08 01:40:09;;;;;;;;;;;;;;;;;;5025514;28;19921;-70
2022/09/08 01:42:36;;;;;;;;;;;;;;;;;;5025320;28;19936;-70
2022/09/08 01:45:03;;;;;;;;;;;;;;;;;;5006584;28;20383;-70
2022/09/08 01:47:30;;;;;;;;;;;;;;;;;;5023746;28;20454;-70
2022/09/08 01:49:57;;;;;;;;;;;;;;;;;;5026513;28;20051;-70
2022/09/08 01:52:24;;;;;;;;;;;;;;;;;;5019576;28;19921;-70
2022/09/08 01:54:51;;;;;;;;;;;;;;;;;;5024105;28;19925;-70
2022/09/08 01:57:19;;;;;;;;;;;;;;;;;;5023998;28;19925;-70
2022/09/08 01:59:46;;;;;;;;;;;;;;;;;;5025592;28;19925;-70
2022/09/08 02:02:13;;;;;;;;;;;;;;;;;;5023418;28;20434;-70
2022/09/08 02:04:40;;;;;;;;;;;;;;;;;;5020515;28;19929;-70
2022/09/08 02:07:07;;;;;;;;;;;;;;;;;;5019707;28;19929;-70
2022/09/08 02:09:34;;;;;;;;;;;;;;;;;;5017474;28;19921;-70
2022/09/08 02:12:01;;;;;;;;;;;;;;;;;;5025342;28;20377;-70
2022/09/08 02:14:28;;;;;;;;;;;;;;;;;;5025187;28;19928;-70
2022/09/08 02:16:55;;;;;;;;;;;;;;;;;;5014771;28;19929;-70
2022/09/08 02:19:22;;;;;;;;;;;;;;;;;;5024195;28;19990;-70
2022/09/08 02:21:49;;;;;;;;;;;;;;;;;;5016700;28;19921;-70
2022/09/08 02:24:16;;;;;;;;;;;;;;;;;;5005984;28;20011;-70
2022/09/08 02:26:43;;;;;;;;;;;;;;;;;;5025701;28;19925;-70
2022/09/08 02:29:10;;;;;;;;;;;;;;;;;;5029203;28;20003;-70
2022/09/08 02:31:37;;;;;;;;;;;;;;;;;;5026050;28;19925;-70
2022/09/08 02:34:04;;;;;;;;;;;;;;;;;;5028790;28;19924;-70
2022/09/08 02:36:31;;;;;;;;;;;;;;;;;;5006225;28;19940;-70
2022/09/08 02:38:58;;;;;;;;;;;;;;;;;;5027086;28;19935;-70
2022/09/08 02:41:25;;;;;;;;;;;;;;;;;;5009439;28;19936;-70
2022/09/08 02:43:52;;;;;;;;;;;;;;;;;;5028659;28;19925;-70
2022/09/08 02:46:19;;;;;;;;;;;;;;;;;;5010826;28;21029;-70
2022/09/08 02:48:46;;;;;;;;;;;;;;;;;;5028661;28;19931;-70
2022/09/08 02:51:14;;;;;;;;;;;;;;;;;;5026490;28;19924;-70
2022/09/08 02:53:41;;;;;;;;;;;;;;;;;;5028132;28;19936;-70
2022/09/08 02:56:08;;;;;;;;;;;;;;;;;;5026934;28;19920;-70
2022/09/08 02:58:35;;;;;;;;;;;;;;;;;;5028064;28;19925;-70
2022/09/08 03:01:02;;;;;;;;;;;;;;;;;;5026191;28;19924;-70
2022/09/08 03:03:29;;;;;;;;;;;;;;;;;;5025473;28;20010;-70
2022/09/08 03:05:56;;;;;;;;;;;;;;;;;;5027355;28;20578;-71
2022/09/08 03:08:23;;;;;;;;;;;;;;;;;;5022852;28;19937;-70
2022/09/08 03:10:52;;;;;;;;;;;;;;;;;;5025761;28;19972;-70
2022/09/08 03:13:19;;;;;;;;;;;;;;;;;;5024833;28;19929;-70
2022/09/08 03:15:46;;;;;;;;;;;;;;;;;;5024985;28;19928;-70
2022/09/08 03:18:13;;;;;;;;;;;;;;;;;;5026995;28;20602;-70
2022/09/08 03:20:40;;;;;;;;;;;;;;;;;;5009752;28;19925;-70
2022/09/08 03:23:07;;;;;;;;;;;;;;;;;;5024058;28;19925;-70
2022/09/08 03:25:35;;;;;;;;;;;;;;;;;;5024839;28;19936;-70
2022/09/08 03:28:02;;;;;;;;;;;;;;;;;;5026475;28;20298;-70
2022/09/08 03:30:29;;;;;;;;;;;;;;;;;;5024249;28;19929;-70
2022/09/08 03:32:56;;;;;;;;;;;;;;;;;;5026832;28;19925;-70
2022/09/08 03:35:23;;;;;;;;;;;;;;;;;;5025394;28;19929;-70
2022/09/08 03:37:50;;;;;;;;;;;;;;;;;;5028215;28;19925;-70
2022/09/08 03:40:18;;;;;;;;;;;;;;;;;;5026838;28;19974;-70
2022/09/08 03:42:45;;;;;;;;;;;;;;;;;;5007491;28;19929;-70
2022/09/08 03:45:12;;;;;;;;;;;;;;;;;;5015583;28;19925;-70
2022/09/08 03:47:39;;;;;;;;;;;;;;;;;;5027302;28;20453;-70
2022/09/08 03:50:06;;;;;;;;;;;;;;;;;;5025486;28;19925;-70
2022/09/08 03:52:33;;;;;;;;;;;;;;;;;;5026661;28;19939;-70
2022/09/08 03:55:00;;;;;;;;;;;;;;;;;;5026551;28;19920;-70
2022/09/08 03:57:27;;;;;;;;;;;;;;;;;;5025806;28;20283;-70
2022/09/08 03:59:54;;;;;;;;;;;;;;;;;;5026197;28;19921;-70
2022/09/08 04:02:21;;;;;;;;;;;;;;;;;;5026768;28;19925;-70
2022/09/08 04:04:48;;;;;;;;;;;;;;;;;;5026448;28;19921;-70
2022/09/08 04:07:15;;;;;;;;;;;;;;;;;;5024352;28;19924;-70
2022/09/08 04:09:42;;;;;;;;;;;;;;;;;;5027615;28;20294;-70
2022/09/08 04:12:09;;;;;;;;;;;;;;;;;;5010892;28;19927;-70
2022/09/08 04:14:37;;;;;;;;;;;;;;;;;;5021072;28;19932;-70
2022/09/08 04:17:04;;;;;;;;;;;;;;;;;;5023827;28;20413;-70
2022/09/08 04:19:31;;;;;;;;;;;;;;;;;;5025605;28;20007;-70
2022/09/08 04:21:58;;;;;;;;;;;;;;;;;;5023744;28;19928;-70
2022/09/08 04:24:25;;;;;;;;;;;;;;;;;;5026828;28;19921;-70
2022/09/08 04:26:52;;;;;;;;;;;;;;;;;;5015719;28;19928;-70
2022/09/08 04:29:19;;;;;;;;;;;;;;;;;;5016998;28;20022;-70
2022/09/08 04:31:47;;;;;;;;;;;;;;;;;;5016801;28;20334;-69
2022/09/08 04:34:14;;;;;;;;;;;;;;;;;;5017925;28;19928;-70
2022/09/08 04:36:41;;;;;;;;;;;;;;;;;;5004273;28;19935;-70
2022/09/08 04:39:08;;;;;;;;;;;;;;;;;;5015673;28;19968;-69
2022/09/08 04:41:35;;;;;;;;;;;;;;;;;;5017553;28;20478;-69
2022/09/08 04:44:03;;;;;;;;;;;;;;;;;;5019379;28;19983;-69
2022/09/08 04:46:30;;;;;;;;;;;;;;;;;;5022314;28;21079;-70
2022/09/08 04:48:57;;;;;;;;;;;;;;;;;;5025798;28;19925;-70
2022/09/08 04:51:24;;;;;;;;;;;;;;;;;;5025619;28;19925;-70
2022/09/08 04:53:52;;;;;;;;;;;;;;;;;;5025183;28;19936;-70
2022/09/08 04:56:19;;;;;;;;;;;;;;;;;;5024804;28;19967;-71
2022/09/08 04:58:46;;;;;;;;;;;;;;;;;;5023413;28;19971;-70
2022/09/08 05:01:13;;;;;;;;;;;;;;;;;;5024365;28;19925;-70
2022/09/08 05:03:40;;;;;;;;;;;;;;;;;;5026112;28;19967;-71
2022/09/08 05:06:07;;;;;;;;;;;;;;;;;;5020880;28;19979;-70
2022/09/08 05:08:34;;;;;;;;;;;;;;;;;;5022325;28;19929;-70
2022/09/08 05:11:01;;;;;;;;;;;;;;;;;;5021666;28;21317;-71
2022/09/08 05:13:28;;;;;;;;;;;;;;;;;;5004993;28;20413;-71
2022/09/08 05:15:55;;;;;;;;;;;;;;;;;;5024673;28;19982;-71
2022/09/08 05:18:22;;;;;;;;;;;;;;;;;;5024931;28;19925;-71
2022/09/08 05:20:49;;;;;;;;;;;;;;;;;;5020632;28;19929;-71
2022/09/08 05:23:16;;;;;;;;;;;;;;;;;;5023605;28;19925;-71
2022/09/08 05:25:43;;;;;;;;;;;;;;;;;;5014752;28;20294;-71
2022/09/08 05:28:10;;;;;;;;;;;;;;;;;;5018708;28;19924;-70
2022/09/08 05:30:37;;;;;;;;;;;;;;;;;;5023774;28;19924;-70
2022/09/08 05:33:04;;;;;;;;;;;;;;;;;;5026675;28;19978;-71
2022/09/08 05:35:31;;;;;;;;;;;;;;;;;;5018248;28;19936;-70
2022/09/08 05:37:58;;;;;;;;;;;;;;;;;;5017376;28;19952;-71
2022/09/08 05:40:25;;;;;;;;;;;;;;;;;;5017654;28;20603;-71
2022/09/08 05:42:52;;;;;;;;;;;;;;;;;;5020632;28;19925;-71
2022/09/08 05:45:19;;;;;;;;;;;;;;;;;;5023699;28;19921;-71
2022/09/08 05:47:46;;;;;;;;;;;;;;;;;;5006939;28;19932;-72
2022/09/08 05:50:13;;;;;;;;;;;;;;;;;;5007602;28;19929;-71
2022/09/08 05:52:40;;;;;;;;;;;;;;;;;;5025525;28;20387;-71
2022/09/08 05:55:07;;;;;;;;;;;;;;;;;;5022820;28;19925;-71
2022/09/08 05:57:35;;;;;;;;;;;;;;;;;;5023239;28;20297;-71
2022/09/08 06:00:02;;;;;;;;;;;;;;;;;;5021634;28;19932;-71
2022/09/08 06:02:29;;;;;;;;;;;;;;;;;;5022201;28;19921;-71
2022/09/08 06:04:56;;;;;;;;;;;;;;;;;;5024814;28;19929;-71
2022/09/08 06:07:23;;;;;;;;;;;;;;;;;;5021529;28;19929;-70
2022/09/08 06:09:50;;;;;;;;;;;;;;;;;;5020411;28;19925;-71
2022/09/08 06:12:17;;;;;;;;;;;;;;;;;;5022116;28;19924;-71
2022/09/08 06:14:44;;;;;;;;;;;;;;;;;;5017847;28;19925;-70
2022/09/08 06:17:11;;;;;;;;;;;;;;;;;;5016493;28;20363;-71
2022/09/08 06:19:38;;;;;;;;;;;;;;;;;;5020674;28;19925;-70
2022/09/08 06:22:05;;;;;;;;;;;;;;;;;;5018121;28;20343;-71
2022/09/08 06:24:33;;;;;;;;;;;;;;;;;;5005931;28;19921;-71
2022/09/08 06:27:00;;;;;;;;;;;;;;;;;;5021569;28;20051;-72
2022/09/08 06:29:27;;;;;;;;;;;;;;;;;;5024075;28;19925;-70
2022/09/08 06:31:54;;;;;;;;;;;;;;;;;;5004119;28;19992;-72
2022/09/08 06:34:21;;;;;;;;;;;;;;;;;;5021318;28;19931;-71
2022/09/08 06:36:48;;;;;;;;;;;;;;;;;;5022372;28;19925;-71
2022/09/08 06:39:16;;;;;;;;;;;;;;;;;;5019321;28;19929;-70
2022/09/08 06:41:43;;;;;;;;;;;;;;;;;;5001796;28;20015;-71
2022/09/08 06:44:11;;;;;;;;;;;;;;;;;;5020554;28;19921;-69
2022/09/08 06:46:38;;;;;;;;;;;;;;;;;;5022247;28;20038;-70
2022/09/08 06:49:05;;;;;;;;;;;;;;;;;;5019287;28;19929;-71
2022/09/08 06:51:32;;;;;;;;;;;;;;;;;;5023057;28;19944;-71
2022/09/08 06:53:59;;;;;;;;;;;;;;;;;;5024289;28;19975;-70
2022/09/08 06:56:26;;;;;;;;;;;;;;;;;;5020040;28;19932;-70
2022/09/08 06:58:53;;;;;;;;;;;;;;;;;;5021681;28;19925;-70
2022/09/08 07:01:20;;;;;;;;;;;;;;;;;;5023910;28;19921;-69
2022/09/08 07:03:48;;;;;;;;;;;;;;;;;;5021628;28;19921;-69
2022/09/08 07:06:15;;;;;;;;;;;;;;;;;;5021082;28;20672;-69
2022/09/08 07:08:42;;;;;;;;;;;;;;;;;;5021151;28;19929;-69
2022/09/08 07:11:09;;;;;;;;;;;;;;;;;;5018314;28;20212;-69
2022/09/08 07:13:36;;;;;;;;;;;;;;;;;;5026140;28;19932;-69
2022/09/08 07:16:03;;;;;;;;;;;;;;;;;;5026558;28;19931;-69
2022/09/08 07:18:30;;;;;;;;;;;;;;;;;;5024373;28;19928;-69
2022/09/08 07:20:57;;;;;;;;;;;;;;;;;;5020045;28;19924;-68
2022/09/08 07:23:24;;;;;;;;;;;;;;;;;;5026705;28;19943;-69
2022/09/08 07:25:52;;;;;;;;;;;;;;;;;;5002975;28;19925;-69
2022/09/08 07:28:19;;;;;;;;;;;;;;;;;;5024396;28;19925;-69
2022/09/08 07:30:46;;;;;;;;;;;;;;;;;;5026656;28;20006;-70
2022/09/08 07:33:13;;;;;;;;;;;;;;;;;;5024612;28;19974;-69
2022/09/08 07:35:40;;;;;;;;;;;;;;;;;;5026338;28;19925;-69
2022/09/08 07:38:07;;;;;;;;;;;;;;;;;;5028120;28;19929;-69
2022/09/08 07:40:34;;;;;;;;;;;;;;;;;;5026407;28;19929;-69
2022/09/08 07:43:01;;;;;;;;;;;;;;;;;;5028148;28;19952;-69
2022/09/08 07:45:28;;;;;;;;;;;;;;;;;;5026119;28;19921;-69
2022/09/08 07:47:55;;;;;;;;;;;;;;;;;;5027130;28;19929;-70
2022/09/08 07:50:22;;;;;;;;;;;;;;;;;;5023203;28;19975;-69
2022/09/08 07:52:49;;;;;;;;;;;;;;;;;;5025798;28;19929;-69
2022/09/08 07:55:16;;;;;;;;;;;;;;;;;;5021582;28;19936;-69
2022/09/08 07:57:43;;;;;;;;;;;;;;;;;;5009841;28;19925;-69
2022/09/08 08:00:10;;;;;;;;;;;;;;;;;;5025378;28;19948;-69
2022/09/08 08:02:37;;;;;;;;;;;;;;;;;;5021564;28;20295;-70
2022/09/08 08:05:04;;;;;;;;;;;;;;;;;;5017632;28;19983;-69
2022/09/08 08:07:31;;;;;;;;;;;;;;;;;;5020869;28;19995;-69
2022/09/08 08:09:58;;;;;;;;;;;;;;;;;;5024604;28;19944;-69
2022/09/08 08:12:25;;;;;;;;;;;;;;;;;;5018490;28;19936;-70
2022/09/08 08:14:52;;;;;;;;;;;;;;;;;;5026156;28;19932;-70
2022/09/08 08:17:19;;;;;;;;;;;;;;;;;;5026213;28;19921;-70
2022/09/08 08:19:47;;;;;;;;;;;;;;;;;;5019905;28;19936;-70
2022/09/08 08:22:14;;;;;;;;;;;;;;;;;;5025138;28;19925;-70
2022/09/08 08:24:41;;;;;;;;;;;;;;;;;;5026247;28;19936;-70
2022/09/08 08:27:08;;;;;;;;;;;;;;;;;;5028666;28;20350;-71
2022/09/08 08:29:35;;;;;;;;;;;;;;;;;;5007213;28;19929;-71
2022/09/08 08:32:03;;;;;;;;;;;;;;;;;;5024559;28;19925;-71
2022/09/08 08:34:30;;;;;;;;;;;;;;;;;;5009090;28;20375;-71
2022/09/08 08:36:57;;;;;;;;;;;;;;;;;;5023934;28;19920;-71
2022/09/08 08:39:24;;;;;;;;;;;;;;;;;;5025425;28;19964;-70
2022/09/08 08:41:51;;;;;;;;;;;;;;;;;;5025422;28;20310;-70
2022/09/08 08:44:18;;;;;;;;;;;;;;;;;;5023474;28;19925;-70
2022/09/08 08:46:45;;;;;;;;;;;;;;;;;;5027058;28;19984;-71
2022/09/08 08:49:12;;;;;;;;;;;;;;;;;;5023720;28;19975;-71
2022/09/08 08:51:39;;;;;;;;;;;;;;;;;;5026282;28;19931;-71
2022/09/08 08:54:06;;;;;;;;;;;;;;;;;;5024557;28;19932;-69
2022/09/08 08:56:33;;;;;;;;;;;;;;;;;;5024753;28;19929;-71
2022/09/08 08:59:00;;;;;;;;;;;;;;;;;;5020369;28;19921;-70
2022/09/08 09:01:27;;;;;;;;;;;;;;;;;;5022668;28;19933;-71
2022/09/08 09:03:54;;;;;;;;;;;;;;;;;;5006034;28;19925;-71
2022/09/08 09:06:21;;;;;;;;;;;;;;;;;;5023901;28;19967;-71
2022/09/08 09:08:48;;;;;;;;;;;;;;;;;;5025165;28;20431;-72
2022/09/08 09:11:15;;;;;;;;;;;;;;;;;;5017987;28;19928;-71
2022/09/08 09:13:42;;;;;;;;;;;;;;;;;;5004925;28;19921;-71
2022/09/08 09:16:09;;;;;;;;;;;;;;;;;;4999042;28;19929;-70
2022/09/08 09:18:36;;;;;;;;;;;;;;;;;;5024648;28;19921;-71
2022/09/08 09:21:03;;;;;;;;;;;;;;;;;;5021031;28;19929;-70
2022/09/08 09:23:30;;;;;;;;;;;;;;;;;;5020596;28;20523;-71
2022/09/08 09:25:57;;;;;;;;;;;;;;;;;;5025801;28;20010;-71
2022/09/08 09:28:25;;;;;;;;;;;;;;;;;;5020838;28;21277;-71
2022/09/08 09:30:52;;;;;;;;;;;;;;;;;;5023981;28;19921;-71
2022/09/08 09:33:19;;;;;;;;;;;;;;;;;;5024455;28;20394;-71
2022/09/08 09:35:46;;;;;;;;;;;;;;;;;;5003209;28;19932;-70
2022/09/08 09:38:13;;;;;;;;;;;;;;;;;;5024480;28;20422;-71
2022/09/08 09:40:40;;;;;;;;;;;;;;;;;;5020709;28;19921;-70
2022/09/08 09:43:07;;;;;;;;;;;;;;;;;;5004040;28;19975;-70
2022/09/08 09:45:35;;;;;;;;;;;;;;;;;;5023553;28;19940;-70
2022/09/08 09:48:02;;;;;;;;;;;;;;;;;;5026255;28;20079;-70
2022/09/08 09:50:30;;;;;;;;;;;;;;;;;;5023164;28;19921;-70
2022/09/08 09:52:57;;;;;;;;;;;;;;;;;;5022538;28;19928;-70
2022/09/08 09:55:24;;;;;;;;;;;;;;;;;;5017991;28;20342;-70
2022/09/08 09:57:51;;;;;;;;;;;;;;;;;;5022142;28;19921;-71
2022/09/08 10:00:18;;;;;;;;;;;;;;;;;;5017647;28;19925;-70
2022/09/08 10:02:45;;;;;;;;;;;;;;;;;;5018589;28;19925;-70
2022/09/08 10:05:12;;;;;;;;;;;;;;;;;;5022924;28;19932;-70
2022/09/08 10:07:39;;;;;;;;;;;;;;;;;;5023117;28;19979;-70
2022/09/08 10:10:06;;;;;;;;;;;;;;;;;;5023823;28;20489;-70
2022/09/08 10:12:34;;;;;;;;;;;;;;;;;;5019279;28;20004;-70
2022/09/08 10:15:01;;;;;;;;;;;;;;;;;;5018805;28;19978;-70
2022/09/08 10:17:27;;;;;;;;;;;;;;;;;;5018620;28;20078;-70
2022/09/08 10:19:55;;;;;;;;;;;;;;;;;;5006128;28;19924;-70
2022/09/08 10:22:22;;;;;;;;;;;;;;;;;;5000101;28;19976;-71
2022/09/08 10:24:49;;;;;;;;;;;;;;;;;;5019673;28;19947;-70
2022/09/08 10:27:16;;;;;;;;;;;;;;;;;;5024099;28;19936;-70
2022/09/08 10:29:43;;;;;;;;;;;;;;;;;;5022304;28;19925;-70
2022/09/08 10:32:10;;;;;;;;;;;;;;;;;;5023997;28;19933;-70
2022/09/08 10:34:37;;;;;;;;;;;;;;;;;;5005699;28;19921;-70
2022/09/08 10:37:04;;;;;;;;;;;;;;;;;;5001245;28;19929;-71
2022/09/08 10:39:31;;;;;;;;;;;;;;;;;;5001204;28;19933;-70
2022/09/08 10:41:58;;;;;;;;;;;;;;;;;;5008490;28;20437;-70
2022/09/08 10:44:25;;;;;;;;;;;;;;;;;;5017248;28;19980;-70
2022/09/08 10:46:52;;;;;;;;;;;;;;;;;;5019794;28;19929;-70
2022/09/08 10:49:19;;;;;;;;;;;;;;;;;;5020636;28;19921;-70
2022/09/08 10:51:46;;;;;;;;;;;;;;;;;;5001800;28;19928;-70
2022/09/08 10:54:14;;;;;;;;;;;;;;;;;;5028707;28;19952;-70
2022/09/08 10:56:41;;;;;;;;;;;;;;;;;;5028790;28;20415;-71
2022/09/08 10:59:08;;;;;;;;;;;;;;;;;;5023715;28;19925;-70
2022/09/08 11:01:35;;;;;;;;;;;;;;;;;;5028939;28;20326;-70
2022/09/08 11:04:02;;;;;;;;;;;;;;;;;;5009416;28;19925;-71
2022/09/08 11:06:29;;;;;;;;;;;;;;;;;;5023401;28;19921;-70
2022/09/08 11:08:56;;;;;;;;;;;;;;;;;;5009214;28;19937;-71
2022/09/08 11:11:23;;;;;;;;;;;;;;;;;;5023906;28;19924;-71
2022/09/08 11:13:50;;;;;;;;;;;;;;;;;;5026115;28;19933;-71
2022/09/08 11:16:17;;;;;;;;;;;;;;;;;;5017382;28;19925;-71
2022/09/08 11:18:44;;;;;;;;;;;;;;;;;;5021046;28;19921;-72
2022/09/08 11:21:12;;;;;;;;;;;;;;;;;;5022738;28;19936;-71
2022/09/08 11:23:39;;;;;;;;;;;;;;;;;;5024004;28;20343;-71
2022/09/08 11:26:06;;;;;;;;;;;;;;;;;;5023697;28;19925;-72
2022/09/08 11:28:34;;;;;;;;;;;;;;;;;;5025707;28;20018;-72
2022/09/08 11:31:01;;;;;;;;;;;;;;;;;;5025291;28;19983;-72
2022/09/08 11:33:28;;;;;;;;;;;;;;;;;;5002466;28;19929;-72
2022/09/08 11:35:55;;;;;;;;;;;;;;;;;;5015015;28;19925;-72
2022/09/08 11:38:22;;;;;;;;;;;;;;;;;;5024348;28;19928;-70
2022/09/08 11:40:49;;;;;;;;;;;;;;;;;;5023610;28;19921;-73
2022/09/08 11:43:16;;;;;;;;;;;;;;;;;;5025437;28;19929;-72
2022/09/08 11:45:43;;;;;;;;;;;;;;;;;;5027581;28;20467;-72
2022/09/08 11:48:10;;;;;;;;;;;;;;;;;;5026145;28;19936;-71
2022/09/08 11:50:37;;;;;;;;;;;;;;;;;;5025861;28;19940;-73
2022/09/08 11:53:04;;;;;;;;;;;;;;;;;;5025364;28;19975;-73
2022/09/08 11:55:31;;;;;;;;;;;;;;;;;;5023052;28;20371;-73
2022/09/08 11:57:58;;;;;;;;;;;;;;;;;;5025511;28;19925;-72
2022/09/08 12:00:26;;;;;;;;;;;;;;;;;;5022065;28;19926;-72
2022/09/08 12:02:53;;;;;;;;;;;;;;;;;;5025833;28;20720;-72
2022/09/08 12:05:20;;;;;;;;;;;;;;;;;;5027462;28;19975;-73
2022/09/08 12:07:47;;;;;;;;;;;;;;;;;;5027036;28;19929;-72
2022/09/08 12:10:14;;;;;;;;;;;;;;;;;;5025901;28;19925;-71
2022/09/08 12:12:41;;;;;;;;;;;;;;;;;;5023053;28;19983;-73
2022/09/08 12:15:08;;;;;;;;;;;;;;;;;;5023773;28;20438;-72
2022/09/08 12:17:35;;;;;;;;;;;;;;;;;;5027438;28;19928;-72
2022/09/08 12:20:02;;;;;;;;;;;;;;;;;;5026740;28;19932;-73
2022/09/08 12:22:29;;;;;;;;;;;;;;;;;;5025913;28;19925;-73
2022/09/08 12:24:56;;;;;;;;;;;;;;;;;;5008499;28;19932;-72
2022/09/08 12:27:23;;;;;;;;;;;;;;;;;;5006670;28;19929;-72
2022/09/08 12:29:50;;;;;;;;;;;;;;;;;;5020273;28;19925;-72
2022/09/08 12:32:17;;;;;;;;;;;;;;;;;;5013973;28;19924;-71
2022/09/08 12:34:44;;;;;;;;;;;;;;;;;;5023896;28;19979;-72
2022/09/08 12:37:11;;;;;;;;;;;;;;;;;;5020096;28;19972;-72
2022/09/08 12:39:39;;;;;;;;;;;;;;;;;;5025028;28;20372;-72
2022/09/08 12:42:06;;;;;;;;;;;;;;;;;;5026225;28;19932;-73
2022/09/08 12:44:33;;;;;;;;;;;;;;;;;;5020188;28;20074;-73
2022/09/08 12:47:00;;;;;;;;;;;;;;;;;;5024212;28;19925;-73
2022/09/08 12:49:27;;;;;;;;;;;;;;;;;;5008179;28;20484;-72
2022/09/08 12:51:54;;;;;;;;;;;;;;;;;;5017836;28;19925;-72
2022/09/08 12:54:23;;;;;;;;;;;;;;;;;;5022263;28;19991;-73
2022/09/08 12:56:50;;;;;;;;;;;;;;;;;;5025720;28;20017;-71
2022/09/08 12:59:18;;;;;;;;;;;;;;;;;;5019592;28;19959;-72
2022/09/08 13:01:45;;;;;;;;;;;;;;;;;;5026250;28;19944;-71
2022/09/08 13:04:12;;;;;;;;;;;;;;;;;;5022385;28;20283;-72
2022/09/08 13:06:39;;;;;;;;;;;;;;;;;;5025139;28;20036;-72
2022/09/08 13:09:07;;;;;;;;;;;;;;;;;;5026171;28;19925;-72
2022/09/08 13:11:34;;;;;;;;;;;;;;;;;;5001693;28;19995;-73
2022/09/08 13:14:01;;;;;;;;;;;;;;;;;;5020227;28;19925;-72
2022/09/08 13:16:28;;;;;;;;;;;;;;;;;;5022168;28;19987;-73
2022/09/08 13:18:55;;;;;;;;;;;;;;;;;;5021241;28;19988;-73
2022/09/08 13:21:26;;;;;;;;;;;;;;;;;;5016275;28;19928;-74
2022/09/08 13:23:53;;;;;;;;;;;;;;;;;;5016024;28;19943;-73
2022/09/08 13:26:20;;;;;;;;;;;;;;;;;;5004556;28;19925;-73
2022/09/08 13:28:47;;;;;;;;;;;;;;;;;;5018431;28;19948;-72
2022/09/08 13:31:14;;;;;;;;;;;;;;;;;;5024163;28;19924;-73
2022/09/08 13:33:41;;;;;;;;;;;;;;;;;;5025165;28;19929;-73
2022/09/08 13:36:08;;;;;;;;;;;;;;;;;;5026421;28;19924;-73
2022/09/08 13:38:35;;;;;;;;;;;;;;;;;;5020186;28;19932;-73
2022/09/08 13:41:02;;;;;;;;;;;;;;;;;;5016771;28;20600;-72
2022/09/08 13:43:29;;;;;;;;;;;;;;;;;;5020289;28;19925;-73
2022/09/08 13:45:56;;;;;;;;;;;;;;;;;;5023387;28;19971;-70
2022/09/08 13:48:23;;;;;;;;;;;;;;;;;;5024528;28;20011;-69
2022/09/08 13:50:50;;;;;;;;;;;;;;;;;;5008770;28;20027;-69
2022/09/08 13:53:17;;;;;;;;;;;;;;;;;;5023516;28;19928;-71
2022/09/08 13:55:44;;;;;;;;;;;;;;;;;;5023145;28;19925;-70
2022/09/08 13:58:14;;;;;;;;;;;;;;;;;;5024182;28;20299;-70
2022/09/08 14:00:41;;;;;;;;;;;;;;;;;;5023766;28;20449;-71
2022/09/08 14:03:09;;;;;;;;;;;;;;;;;;5024456;28;19928;-71
2022/09/08 14:05:36;;;;;;;;;;;;;;;;;;5025304;28;19925;-71
2022/09/08 14:08:03;;;;;;;;;;;;;;;;;;5023837;28;20383;-71
2022/09/08 14:10:31;;;;;;;;;;;;;;;;;;5023505;28;19925;-71
2022/09/08 14:12:58;;;;;;;;;;;;;;;;;;5023138;28;19976;-71
2022/09/08 14:15:25;;;;;;;;;;;;;;;;;;5020624;28;20296;-72
2022/09/08 14:17:52;;;;;;;;;;;;;;;;;;5012895;28;19976;-71
2022/09/08 14:20:19;;;;;;;;;;;;;;;;;;5018292;28;19983;-71
2022/09/08 14:22:46;;;;;;;;;;;;;;;;;;5022095;28;19926;-72
2022/09/08 14:25:13;;;;;;;;;;;;;;;;;;5019718;28;19928;-72
2022/09/08 14:27:40;;;;;;;;;;;;;;;;;;5018466;28;19925;-72
2022/09/08 14:30:07;;;;;;;;;;;;;;;;;;5017568;28;20372;-72
2022/09/08 14:32:34;;;;;;;;;;;;;;;;;;5019359;28;19939;-73
2022/09/08 14:35:01;;;;;;;;;;;;;;;;;;5024470;28;19924;-72
2022/09/08 14:37:28;;;;;;;;;;;;;;;;;;5018526;28;19937;-73
2022/09/08 14:39:55;;;;;;;;;;;;;;;;;;5020540;28;19929;-72
2022/09/08 14:42:22;;;;;;;;;;;;;;;;;;5018271;28;19932;-70
2022/09/08 14:44:50;;;;;;;;;;;;;;;;;;5015841;28;20423;-70
2022/09/08 14:47:18;;;;;;;;;;;;;;;;;;5016152;28;19933;-71
2022/09/08 14:49:45;;;;;;;;;;;;;;;;;;5023694;28;19925;-70
2022/09/08 14:52:14;;;;;;;;;;;;;;;;;;5020749;28;19979;-71
2022/09/08 14:54:43;;;;;;;;;;;;;;;;;;5022617;28;19936;-71
2022/09/08 14:57:10;;;;;;;;;;;;;;;;;;5024353;28;20390;-71
2022/09/08 14:59:37;;;;;;;;;;;;;;;;;;5022283;28;19925;-71
2022/09/08 15:02:04;;;;;;;;;;;;;;;;;;5023887;28;19940;-71
2022/09/08 15:04:31;;;;;;;;;;;;;;;;;;5019375;28;20008;-73
2022/09/08 15:06:59;;;;;;;;;;;;;;;;;;5003848;28;19933;-71
2022/09/08 15:09:26;;;;;;;;;;;;;;;;;;5018017;28;19929;-71
2022/09/08 15:11:53;;;;;;;;;;;;;;;;;;5023385;28;19928;-71
2022/09/08 15:14:22;;;;;;;;;;;;;;;;;;5022234;28;19924;-71
2022/09/08 15:16:51;;;;;;;;;;;;;;;;;;5016018;28;19925;-71
2022/09/08 15:19:19;;;;;;;;;;;;;;;;;;5018759;28;19956;-71
2022/09/08 15:21:46;;;;;;;;;;;;;;;;;;5022701;28;20368;-71
2022/09/08 15:24:13;;;;;;;;;;;;;;;;;;5023930;28;19921;-71
2022/09/08 15:26:40;;;;;;;;;;;;;;;;;;5020461;28;19931;-71
2022/09/08 15:29:07;;;;;;;;;;;;;;;;;;5024286;28;19929;-71
2022/09/08 15:31:35;;;;;;;;;;;;;;;;;;5022656;28;19929;-71
2022/09/08 15:34:02;;;;;;;;;;;;;;;;;;5026909;28;19932;-72
2022/09/08 15:36:31;;;;;;;;;;;;;;;;;;5026143;28;20004;-72
2022/09/08 15:38:58;;;;;;;;;;;;;;;;;;5028698;28;19928;-72
2022/09/08 15:41:26;;;;;;;;;;;;;;;;;;5023866;28;19983;-72
2022/09/08 15:43:53;;;;;;;;;;;;;;;;;;5005056;28;19928;-72
2022/09/08 15:46:20;;;;;;;;;;;;;;;;;;5024409;28;20398;-72
2022/09/08 15:48:51;;;;;;;;;;;;;;;;;;5024216;28;19936;-72
2022/09/08 15:51:18;;;;;;;;;;;;;;;;;;5025955;28;19929;-71
2022/09/08 15:53:45;;;;;;;;;;;;;;;;;;5026758;28;19932;-72
2022/09/08 15:56:13;;;;;;;;;;;;;;;;;;5025594;28;20427;-72
2022/09/08 15:58:40;;;;;;;;;;;;;;;;;;5030220;28;19960;-72
2022/09/08 16:01:07;;;;;;;;;;;;;;;;;;5025288;28;19925;-72
2022/09/08 16:03:34;;;;;;;;;;;;;;;;;;5025798;28;19925;-72
2022/09/08 16:06:03;;;;;;;;;;;;;;;;;;5026906;28;21678;-73
2022/09/08 16:08:30;;;;;;;;;;;;;;;;;;5021545;28;19947;-73
2022/09/08 16:10:57;;;;;;;;;;;;;;;;;;5022977;28;20380;-72
2022/09/08 16:13:24;;;;;;;;;;;;;;;;;;5017426;28;19921;-72
2022/09/08 16:15:52;;;;;;;;;;;;;;;;;;5023574;28;19931;-73
2022/09/08 16:18:19;;;;;;;;;;;;;;;;;;5025450;28;19921;-72
2022/09/08 16:20:46;;;;;;;;;;;;;;;;;;5021165;28;19925;-72
2022/09/08 16:23:13;;;;;;;;;;;;;;;;;;5023967;28;19971;-73
2022/09/08 16:25:41;;;;;;;;;;;;;;;;;;5026309;28;19925;-72
2022/09/08 16:28:08;;;;;;;;;;;;;;;;;;5024008;28;19931;-73
2022/09/08 16:30:37;;;;;;;;;;;;;;;;;;5023158;28;19931;-73
2022/09/08 16:33:06;;;;;;;;;;;;;;;;;;5022977;28;20356;-72
2022/09/08 16:35:33;;;;;;;;;;;;;;;;;;5012696;28;19968;-73
2022/09/08 16:38:00;;;;;;;;;;;;;;;;;;5023468;28;19921;-73
2022/09/08 16:40:27;;;;;;;;;;;;;;;;;;5009312;28;19932;-72
2022/09/08 16:42:55;;;;;;;;;;;;;;;;;;5022953;28;20019;-73
2022/09/08 16:45:22;;;;;;;;;;;;;;;;;;5023285;28;19925;-73
2022/09/08 16:47:49;;;;;;;;;;;;;;;;;;5016188;28;20673;-72
2022/09/08 16:50:16;;;;;;;;;;;;;;;;;;4999630;28;20409;-73